createdAt,value
2022-11-04T00:03:38.496Z,49.58
2022-11-04T00:09:04.403Z,49.33
2022-11-04T00:12:05.831Z,52.55
2022-11-04T00:14:47.516Z,50.45
2022-11-04T00:17:40.510Z,50.65
2022-11-04T00:20:44.089Z,48.53
2022-11-04T00:23:40.404Z,48.38
2022-11-04T00:26:33.966Z,48.55
2022-11-04T00:29:16.918Z,48.65
2022-11-04T00:32:11.296Z,48.70
2022-11-04T00:34:52.225Z,49.42
2022-11-04T00:37:42.008Z,48.88
2022-11-04T00:40:37.372Z,48.72
2022-11-04T00:43:18.395Z,48.75
2022-11-04T00:46:08.511Z,49.42
2022-11-04T00:48:55.500Z,48.97
2022-11-04T00:51:38.754Z,50.30
2022-11-04T00:54:22.509Z,50.65
2022-11-04T00:57:08.893Z,47.80
2022-11-04T01:00:04.561Z,46.67
2022-11-04T01:02:44.449Z,46.40
2022-11-04T01:05:34.497Z,46.55
2022-11-04T01:08:31.278Z,46.30
2022-11-04T01:11:19.571Z,43.58
2022-11-04T01:14:08.289Z,43.75
2022-11-04T01:16:52.933Z,43.55
2022-11-04T01:19:40.652Z,45.38
2022-11-04T01:22:23.508Z,46.13
2022-11-04T01:25:13.203Z,46.35
2022-11-04T01:28:02.212Z,44.47
2022-11-04T01:30:50.440Z,43.85
2022-11-04T01:33:36.800Z,46.42
2022-11-04T01:36:16.992Z,46.30
2022-11-04T01:39:02.945Z,50.37
2022-11-04T01:41:52.582Z,47.22
2022-11-04T01:44:52.537Z,47.03
2022-11-04T01:47:46.326Z,49.72
2022-11-04T01:50:33.518Z,46.38
2022-11-04T01:53:31.522Z,45.60
2022-11-04T01:56:26.526Z,45.95
2022-11-04T01:59:07.439Z,50.85
2022-11-04T02:04:34.878Z,46.08
2022-11-04T02:07:21.895Z,47.10
2022-11-04T02:10:07.859Z,48.30
2022-11-04T02:12:56.986Z,50.42
2022-11-04T02:15:58.520Z,50.00
2022-11-04T02:18:52.616Z,50.80
2022-11-04T02:21:43.526Z,50.33
2022-11-04T02:25:17.025Z,48.22
2022-11-04T02:28:21.158Z,46.88
2022-11-04T02:31:20.498Z,50.67
2022-11-04T02:34:04.378Z,50.35
2022-11-04T02:37:27.123Z,50.35
2022-11-04T02:40:24.971Z,50.20
2022-11-04T02:43:32.646Z,52.92
2022-11-04T02:46:47.411Z,48.97
2022-11-04T02:49:39.320Z,47.47
2022-11-04T02:52:30.238Z,49.15
2022-11-04T02:55:28.738Z,51.40
2022-11-04T02:58:13.637Z,49.47
2022-11-04T03:01:01.633Z,49.25
2022-11-04T03:03:55.848Z,49.53
2022-11-04T03:06:42.764Z,47.38
2022-11-04T03:09:31.248Z,52.33
2022-11-04T03:12:15.112Z,51.63
2022-11-04T03:15:08.517Z,48.85
2022-11-04T03:18:00.676Z,51.63
2022-11-04T03:20:49.339Z,47.03
2022-11-04T03:23:41.906Z,50.28
2022-11-04T03:26:56.040Z,46.58
2022-11-04T03:30:26.255Z,46.70
2022-11-04T03:33:30.061Z,48.30
2022-11-04T03:36:11.158Z,48.05
2022-11-04T03:38:59.712Z,51.35
2022-11-04T03:42:00.364Z,54.47
2022-11-04T03:44:41.592Z,48.95
2022-11-04T03:47:17.209Z,53.17
2022-11-04T03:50:08.277Z,51.50
2022-11-04T03:52:55.113Z,53.13
2022-11-04T03:55:45.402Z,55.35
2022-11-04T03:59:01.391Z,59.25
2022-11-04T04:02:00.795Z,52.38
2022-11-04T04:04:46.329Z,59.45
2022-11-04T04:07:43.171Z,57.50
2022-11-04T04:10:47.961Z,58.25
2022-11-04T04:13:47.263Z,58.63
2022-11-04T04:16:38.329Z,59.25
2022-11-04T04:19:27.329Z,58.88
2022-11-04T04:22:15.590Z,57.95
2022-11-04T04:25:19.025Z,59.97
2022-11-04T04:28:11.516Z,60.88
2022-11-04T04:30:57.689Z,64.10
2022-11-04T04:33:45.630Z,62.05
2022-11-04T04:36:32.408Z,62.08
2022-11-04T04:39:31.830Z,62.05
2022-11-04T04:42:32.170Z,60.17
2022-11-04T04:45:19.725Z,55.75
2022-11-04T04:48:03.692Z,65.32
2022-11-04T04:51:02.223Z,64.85
2022-11-04T04:53:40.766Z,68.60
2022-11-04T04:56:27.434Z,67.18
2022-11-04T04:59:10.988Z,61.60
2022-11-04T05:01:56.640Z,62.80
2022-11-04T05:04:37.385Z,68.95
2022-11-04T05:07:15.896Z,62.60
2022-11-04T05:09:56.733Z,65.47
2022-11-04T05:12:54.274Z,67.40
2022-11-04T05:15:36.285Z,65.50
2022-11-04T05:18:20.541Z,68.70
2022-11-04T05:21:22.192Z,68.75
2022-11-04T05:24:00.429Z,67.93
2022-11-04T05:26:43.099Z,68.72
2022-11-04T05:29:35.518Z,68.07
2022-11-04T05:32:21.519Z,66.57
2022-11-04T05:35:04.638Z,63.53
2022-11-04T05:37:45.514Z,66.25
2022-11-04T05:40:36.676Z,72.07
2022-11-04T05:43:23.521Z,73.22
2022-11-04T05:46:11.882Z,73.03
2022-11-04T05:48:53.554Z,67.38
2022-11-04T05:51:46.912Z,70.90
2022-11-04T05:54:30.483Z,71.88
2022-11-04T05:57:20.386Z,72.72
2022-11-04T06:00:00.276Z,75.70
2022-11-04T06:02:52.609Z,70.60
2022-11-04T06:05:33.278Z,73.50
2022-11-04T06:08:20.298Z,73.55
2022-11-04T06:10:58.686Z,69.55
2022-11-04T06:14:06.132Z,70.97
2022-11-04T06:16:52.390Z,64.78
2022-11-04T06:19:41.222Z,69.75
2022-11-04T06:22:22.489Z,72.05
2022-11-04T06:25:14.528Z,69.68
2022-11-04T06:28:05.550Z,71.15
2022-11-04T06:30:56.322Z,68.03
2022-11-04T06:33:50.514Z,67.75
2022-11-04T06:36:34.544Z,69.93
2022-11-04T06:39:20.498Z,64.75
2022-11-04T06:42:04.555Z,65.65
2022-11-04T06:44:47.441Z,71.95
2022-11-04T06:47:33.517Z,67.35
2022-11-04T06:50:27.734Z,62.92
2022-11-04T06:53:12.503Z,65.75
2022-11-04T06:56:06.876Z,68.18
2022-11-04T06:59:00.462Z,64.93
2022-11-04T07:01:49.934Z,62.85
2022-11-04T07:04:34.499Z,60.97
2022-11-04T07:07:17.245Z,60.45
2022-11-04T07:10:05.571Z,65.70
2022-11-04T07:12:42.806Z,68.43
2022-11-04T07:15:41.538Z,63.20
2022-11-04T07:18:27.277Z,65.35
2022-11-04T07:21:10.164Z,62.35
2022-11-04T07:23:56.435Z,59.78
2022-11-04T07:26:39.866Z,59.65
2022-11-04T07:29:20.258Z,57.63
2022-11-04T07:31:57.738Z,57.65
2022-11-04T07:34:43.498Z,59.28
2022-11-04T07:37:29.830Z,58.53
2022-11-04T07:40:08.740Z,54.05
2022-11-04T07:42:59.973Z,58.40
2022-11-04T07:46:03.894Z,51.15
2022-11-04T07:48:46.864Z,50.75
2022-11-04T07:51:26.626Z,49.97
2022-11-04T07:54:11.468Z,50.50
2022-11-04T07:56:52.425Z,50.65
2022-11-04T07:59:35.319Z,51.10
2022-11-04T08:02:13.834Z,49.10
2022-11-04T08:05:06.506Z,47.85
2022-11-04T08:07:51.804Z,50.33
2022-11-04T08:10:42.508Z,52.33
2022-11-04T08:13:36.586Z,53.33
2022-11-04T08:16:20.498Z,53.15
2022-11-04T08:19:10.460Z,49.65
2022-11-04T08:21:50.881Z,50.72
2022-11-04T08:24:37.994Z,50.35
2022-11-04T08:27:27.928Z,49.40
2022-11-04T08:30:13.967Z,50.33
2022-11-04T08:33:00.495Z,51.70
2022-11-04T08:35:47.199Z,49.40
2022-11-04T08:38:32.772Z,48.78
2022-11-04T08:41:19.446Z,51.58
2022-11-04T08:44:04.318Z,49.70
2022-11-04T08:46:56.077Z,49.72
2022-11-04T08:49:42.869Z,47.95
2022-11-04T08:52:25.869Z,48.58
2022-11-04T08:55:10.139Z,49.42
2022-11-04T08:58:01.314Z,50.50
2022-11-04T09:00:40.054Z,51.03
2022-11-04T09:03:24.540Z,48.35
2022-11-04T09:06:11.805Z,47.42
2022-11-04T09:08:58.291Z,48.80
2022-11-04T09:11:45.461Z,49.40
2022-11-04T09:14:29.485Z,51.95
2022-11-04T09:17:12.480Z,53.95
2022-11-04T09:19:58.453Z,51.70
2022-11-04T09:22:46.089Z,47.47
2022-11-04T09:25:33.264Z,50.20
2022-11-04T09:28:25.725Z,50.20
2022-11-04T09:31:14.792Z,52.28
2022-11-04T09:34:06.667Z,50.35
2022-11-04T09:37:03.507Z,51.97
2022-11-04T09:39:54.102Z,51.08
2022-11-04T09:42:40.349Z,51.75
2022-11-04T09:45:23.370Z,50.70
2022-11-04T09:48:14.956Z,50.95
2022-11-04T09:57:24.975Z,48.55
2022-11-04T10:00:20.578Z,53.10
2022-11-04T10:03:13.439Z,52.42
2022-11-04T10:06:18.858Z,51.28
2022-11-04T10:09:29.236Z,52.60
2022-11-04T10:12:24.491Z,54.97
2022-11-04T10:15:28.306Z,55.75
2022-11-04T10:18:38.135Z,55.58
2022-11-04T10:21:23.509Z,56.88
2022-11-04T10:24:21.547Z,56.13
2022-11-04T10:27:01.571Z,58.97
2022-11-04T10:30:09.151Z,59.60
2022-11-04T10:33:13.868Z,57.33
2022-11-04T10:36:22.447Z,57.03
2022-11-04T10:39:18.415Z,59.08
2022-11-04T10:42:15.518Z,61.05
2022-11-04T10:45:04.029Z,57.33
2022-11-04T10:48:33.909Z,63.47
2022-11-04T10:51:25.483Z,65.55
2022-11-04T10:54:05.415Z,63.63
2022-11-04T10:56:57.300Z,59.35
2022-11-04T11:00:14.545Z,64.47
2022-11-04T11:03:02.792Z,61.30
2022-11-04T11:05:56.977Z,60.20
2022-11-04T11:08:48.392Z,59.35
2022-11-04T11:11:46.507Z,61.25
2022-11-04T11:14:49.196Z,61.95
2022-11-04T11:17:39.264Z,60.70
2022-11-04T11:20:35.847Z,58.85
2022-11-04T11:23:45.287Z,60.92
2022-11-04T11:26:48.117Z,60.45
2022-11-04T11:29:42.162Z,59.00
2022-11-04T11:32:48.865Z,57.25
2022-11-04T11:35:44.550Z,56.95
2022-11-04T11:38:45.800Z,56.50
2022-11-04T11:41:29.044Z,60.38
2022-11-04T11:44:32.626Z,59.17
2022-11-04T11:47:28.602Z,59.65
2022-11-04T11:51:09.309Z,62.47
2022-11-04T11:54:14.729Z,61.75
2022-11-04T11:57:25.110Z,56.45
2022-11-04T12:00:38.046Z,57.80
2022-11-04T12:10:51.767Z,48.90
2022-11-04T12:13:58.606Z,49.75
2022-11-04T12:17:28.090Z,52.47
2022-11-04T12:20:32.512Z,52.50
2022-11-04T12:23:42.912Z,52.03
2022-11-04T12:26:39.025Z,52.85
2022-11-04T12:29:39.872Z,53.47
2022-11-04T12:32:58.494Z,50.85
2022-11-04T12:36:11.235Z,51.50
2022-11-04T12:38:56.329Z,51.80
2022-11-04T12:42:19.525Z,50.50
2022-11-04T12:45:14.776Z,48.78
2022-11-04T12:47:58.598Z,51.30
2022-11-04T12:51:21.173Z,50.70
2022-11-04T12:57:40.855Z,49.60
2022-11-04T13:00:40.649Z,45.92
2022-11-04T13:03:32.883Z,47.45
2022-11-04T13:06:34.477Z,47.42
2022-11-04T13:09:22.834Z,47.30
2022-11-04T13:12:26.633Z,46.30
2022-11-04T13:15:13.905Z,43.03
2022-11-04T13:17:54.312Z,44.00
2022-11-04T13:20:35.736Z,44.95
2022-11-04T13:23:46.248Z,41.35
2022-11-04T13:26:31.663Z,42.58
2022-11-04T13:29:44.971Z,40.65
2022-11-04T13:32:58.011Z,41.22
2022-11-04T13:36:22.656Z,41.45
2022-11-04T13:39:08.503Z,41.15
2022-11-04T13:42:16.692Z,43.42
2022-11-04T14:25:00.489Z,47.80
2022-11-04T14:27:53.676Z,45.67
2022-11-04T14:30:54.016Z,42.15
2022-11-04T14:33:37.338Z,43.63
2022-11-04T14:36:37.544Z,41.35
2022-11-04T14:39:41.718Z,42.03
2022-11-04T14:42:37.488Z,41.08
2022-11-04T14:45:25.471Z,40.42
2022-11-04T14:48:31.683Z,41.40
2022-11-04T14:51:13.471Z,39.85
2022-11-04T14:53:40.453Z,39.03
2022-11-04T14:56:24.781Z,40.65
2022-11-04T14:59:06.496Z,41.60
2022-11-04T15:02:11.885Z,44.08
2022-11-04T15:05:05.493Z,42.20
2022-11-04T15:10:44.957Z,37.92
2022-11-04T15:13:33.499Z,37.42
2022-11-04T15:16:36.038Z,37.17
2022-11-04T15:19:24.044Z,35.60
2022-11-04T15:22:16.474Z,36.75
2022-11-04T15:25:00.354Z,38.30
2022-11-04T15:27:47.597Z,42.17
2022-11-04T15:31:02.510Z,43.15
2022-11-04T15:34:17.895Z,41.88
2022-11-04T15:37:18.976Z,41.95
2022-11-04T15:40:01.494Z,41.30
2022-11-04T15:42:49.107Z,39.05
2022-11-04T15:46:23.387Z,36.97
2022-11-04T15:49:25.059Z,39.72
2022-11-04T15:52:20.127Z,40.08
2022-11-04T15:55:04.732Z,41.72
2022-11-04T15:57:44.566Z,39.20
2022-11-04T16:00:39.659Z,41.22
2022-11-04T16:03:27.477Z,42.63
2022-11-04T16:06:17.296Z,42.38
2022-11-04T16:09:17.473Z,45.50
2022-11-04T16:12:22.303Z,43.83
2022-11-04T16:15:03.450Z,43.60
2022-11-04T16:18:03.780Z,45.03
2022-11-04T16:20:59.881Z,44.97
2022-11-04T16:23:50.451Z,45.95
2022-11-04T16:26:47.356Z,46.55
2022-11-04T16:29:48.743Z,44.00
2022-11-04T16:32:48.542Z,48.22
2022-11-04T16:35:32.978Z,47.72
2022-11-04T16:38:24.554Z,48.50
2022-11-04T16:41:14.493Z,48.30
2022-11-04T16:44:01.647Z,48.45
2022-11-04T16:46:49.678Z,54.38
2022-11-04T16:49:32.506Z,50.67
2022-11-04T16:52:21.015Z,50.13
2022-11-04T16:55:05.463Z,52.65
2022-11-04T16:57:52.502Z,50.75
2022-11-04T17:00:38.071Z,49.47
2022-11-04T17:03:35.556Z,49.22
2022-11-04T17:06:14.462Z,50.08
2022-11-04T17:12:15.024Z,53.95
2022-11-04T17:15:06.468Z,52.42
2022-11-04T17:17:50.395Z,53.65
2022-11-04T17:20:36.367Z,52.58
2022-11-04T17:23:20.313Z,57.47
2022-11-04T17:26:09.472Z,52.78
2022-11-04T17:28:58.818Z,51.63
2022-11-04T17:31:48.029Z,52.50
2022-11-04T17:34:32.539Z,53.45
2022-11-04T17:37:18.165Z,53.03
2022-11-04T17:40:01.657Z,52.05
2022-11-04T17:43:11.939Z,50.45
2022-11-04T17:46:21.262Z,51.80
2022-11-04T17:49:23.769Z,55.28
2022-11-04T17:52:11.483Z,49.80
2022-11-04T17:54:59.910Z,48.67
2022-11-04T17:57:40.791Z,48.25
2022-11-04T18:00:29.758Z,47.35
2022-11-04T18:03:15.087Z,46.65
2022-11-04T18:06:09.229Z,48.60
2022-11-04T18:09:04.455Z,48.95
2022-11-04T18:12:00.795Z,47.25
2022-11-04T18:14:42.765Z,47.00
2022-11-04T18:17:29.675Z,47.80
2022-11-04T18:20:18.499Z,47.97
2022-11-04T18:23:09.569Z,45.13
2022-11-04T18:25:51.452Z,45.72
2022-11-04T18:28:35.456Z,46.05
2022-11-04T18:31:27.557Z,45.92
2022-11-04T18:34:17.602Z,42.63
2022-11-04T18:37:00.859Z,42.53
2022-11-04T18:39:50.277Z,41.30
2022-11-04T18:42:30.751Z,43.88
2022-11-04T18:45:11.385Z,45.20
2022-11-04T18:48:03.456Z,47.35
2022-11-04T18:50:44.273Z,45.38
2022-11-04T18:53:30.664Z,43.72
2022-11-04T18:56:33.005Z,45.38
2022-11-04T18:59:16.660Z,48.17
2022-11-04T19:02:05.672Z,52.50
2022-11-04T19:04:46.432Z,61.55
2022-11-04T19:07:50.070Z,65.43
2022-11-04T19:10:28.479Z,66.38
2022-11-04T19:13:26.567Z,49.13
2022-11-04T19:16:13.352Z,51.40
2022-11-04T19:19:00.495Z,61.92
2022-11-04T19:21:37.842Z,64.65
2022-11-04T19:24:26.011Z,68.85
2022-11-04T19:27:14.106Z,66.18
2022-11-04T19:29:56.483Z,68.97
2022-11-04T19:32:43.277Z,68.47
2022-11-04T19:35:23.754Z,65.03
2022-11-04T19:38:15.786Z,70.50
2022-11-04T19:41:43.987Z,70.35
2022-11-04T19:44:32.310Z,67.63
2022-11-04T19:47:16.449Z,69.55
2022-11-04T19:49:57.485Z,70.00
2022-11-04T19:52:41.426Z,67.28
2022-11-04T19:55:20.644Z,65.80
2022-11-04T19:58:01.920Z,67.88
2022-11-04T20:00:44.557Z,60.90
2022-11-04T20:03:25.015Z,64.43
2022-11-04T20:06:11.071Z,63.72
2022-11-04T20:08:54.831Z,64.38
2022-11-04T20:11:56.654Z,61.17
2022-11-04T20:14:45.897Z,54.60
2022-11-04T20:17:29.382Z,58.30
2022-11-04T20:20:12.484Z,55.55
2022-11-04T20:23:03.733Z,55.38
2022-11-04T20:25:52.788Z,55.78
2022-11-04T20:28:37.009Z,53.28
2022-11-04T20:31:21.436Z,52.88
2022-11-04T20:34:10.559Z,50.17
2022-11-04T20:37:03.135Z,51.58
2022-11-04T20:39:46.825Z,50.33
2022-11-04T20:42:27.944Z,49.80
2022-11-04T20:47:58.820Z,54.13
2022-11-04T20:50:42.270Z,52.40
2022-11-04T20:53:25.156Z,55.35
2022-11-04T20:56:13.472Z,58.63
2022-11-04T20:58:59.871Z,56.53
2022-11-04T21:01:38.682Z,55.53
2022-11-04T21:04:19.214Z,62.70
2022-11-04T21:07:02.807Z,63.97
2022-11-04T21:09:43.788Z,62.17
2022-11-04T21:15:28.566Z,59.28
2022-11-04T21:18:18.188Z,65.35
2022-11-04T21:21:04.137Z,69.55
2022-11-04T21:23:47.564Z,67.53
2022-11-04T21:29:20.687Z,89.85
2022-11-04T21:32:07.814Z,77.15
2022-11-04T21:37:37.208Z,69.65
2022-11-04T21:40:25.572Z,75.32
2022-11-04T21:43:17.617Z,73.15
2022-11-04T21:45:55.020Z,79.40
2022-11-04T21:48:44.463Z,76.88
2022-11-04T21:51:29.081Z,79.38
2022-11-04T21:54:17.123Z,78.97
2022-11-04T21:57:04.447Z,73.63
2022-11-04T21:59:49.439Z,69.25
2022-11-04T22:02:24.569Z,71.15
2022-11-04T22:05:08.529Z,73.13
2022-11-04T22:10:49.452Z,69.55
2022-11-04T22:13:28.677Z,72.53
2022-11-04T22:16:31.083Z,76.45
2022-11-04T22:19:10.491Z,73.20
2022-11-04T22:21:56.979Z,75.97
2022-11-04T22:24:42.992Z,73.78
2022-11-04T22:27:26.470Z,78.53
2022-11-04T22:30:20.509Z,76.57
2022-11-04T22:33:01.463Z,76.70
2022-11-04T22:35:48.497Z,82.78
2022-11-04T22:38:32.650Z,91.90
2022-11-04T22:41:26.463Z,92.25
2022-11-04T22:44:12.484Z,86.60
2022-11-04T22:46:54.576Z,88.55
2022-11-04T22:49:41.056Z,88.28
2022-11-04T22:52:24.475Z,87.07
2022-11-04T22:55:14.458Z,89.22
2022-11-04T22:58:06.092Z,86.93
2022-11-04T23:00:51.679Z,87.45
2022-11-04T23:03:34.912Z,88.95
2022-11-04T23:06:18.482Z,95.07
2022-11-04T23:09:10.749Z,106.28
2022-11-04T23:12:04.553Z,109.75
2022-11-04T23:14:42.598Z,120.38
2022-11-04T23:17:40.981Z,120.78
2022-11-04T23:20:19.752Z,117.53
2022-11-04T23:23:21.255Z,115.38
2022-11-04T23:26:02.673Z,116.65
2022-11-04T23:29:01.767Z,117.93
2022-11-04T23:31:50.726Z,112.03
2022-11-04T23:34:38.764Z,112.10
2022-11-04T23:37:21.395Z,112.15
2022-11-04T23:40:12.434Z,108.22
2022-11-04T23:42:56.611Z,107.72
2022-11-04T23:45:56.177Z,104.80
2022-11-04T23:48:51.583Z,100.07
2022-11-04T23:51:50.010Z,97.57
2022-11-04T23:54:54.149Z,98.68
2022-11-04T23:57:47.755Z,92.07
